Aviation Digital Data Service (ADDS)

Output produced by METARs form (1024 UTC 19 January 2019)
found at http://www.aviationweather.gov/metar/data/
 
LZKZ 191000Z 07003KT 040V110 CAVOK M02/M06 Q1022 NOSIG
TAF LZKZ 190500Z 1906/2006 03007KT 9999 SCT025 
     BECMG 1908/1910 CAVOK 
     BECMG 2003/2005 9999 SCT030 BKN070
       
LZIB 191000Z 06006KT 9999 FEW031 SCT100 M01/M06 Q1022 NOSIG
TAF LZIB 190500Z 1906/2006 06003KT CAVOK 
     TEMPO 1910/1918 12006KT 
     BECMG 1910/1912 9999 BKN030
       
TAF LZMC 190730Z 1909/1918 12005KT CAVOK 
     BECMG 1912/1914 9999 SCT030
       
LZPP 191000Z 02006KT CAVOK M04/M07 Q1022
TAF LZPP 190800Z 1909/1918 02006KT CAVOK 
     BECMG 1909/1911 12004KT 9999 SCT040 BKN080
       
LZSL 191000Z VRB01KT 9999 SCT044 M03/M09 Q1022
TAF LZSL 190800Z 1909/1918 VRB02KT CAVOK 
     TEMPO 1909/1913 9999 SCT040
       
LZTT 191000Z 04003KT 010V070 CAVOK M06/M10 Q1019 NOSIG
TAF LZTT 190500Z 1906/2006 25005KT 9999 FEW033 
     TEMPO 1917/1920 4000 BCFG SCT004 BKN100 
     BECMG 2003/2005 9999 SCT030 BKN070
       
LZZI 191000Z 08005KT 9999 FEW040 M08/M09 Q1022
TAF LZZI 190800Z 1909/1918 VRB02KT CAVOK 
     BECMG 1910/1912 9999 SCT040